עמוד ראשי
METAR-TAF:

METAR-TAF

שדות תעופה :

מנגואה, ניקרגואה

קו רוחב: 12-09N, קו אורך: 086-10W, גובה: 50מטר

תצפית מזג אוויר נוכחית

הדו"ח נערך לפני 49דקות, בשעה 11:00 UTC
רוח 4קשר מכיוון מזרח/דרום-מזרח
טמפרטורת 26 צלסיוס
לחות 89%
לחץ 1011 hPa
ראות 10 קילומטר או יותר
מעט עננים בגובה 2000רגל
עננים פזורים בגובה 7000רגל

METAR: MNMG 291100Z 11004KT 9999 FEW020 SCT070 26/24 Q1010 A2985 NOSIG

זמן: 05:49 (11:49 UTC)

תחזית

הדו"ח נערך לפני 39דקות, בשעה 11:10 UTC
תחזית בתוקף מ 29 ב 12 UTC עד 30 ב 12 UTC
רוח 6קשר מכיוון מזרח
ראות 10 קילומטר או יותר
מעט עננים בגובה 2100רגל
עננים פזורים בגובה 7000רגל
זמנית מ -
29 ב 18 UTC עד 29 ב 22 UTC
רוח 10קשר עם כיוונים משתנים עם משבים עד 20קשר
ראות: 7000מטר
מעט עננים בגובה 2000רגל , קומולונימבוס.
עננים פזורים בגובה 2100רגל

TAF: MNMG 291110Z 2912/3012 09006KT 9999 FEW021 SCT070 TEMPO 2918/2922 VRB10G20KT 7000 DZ/TSRA FEW020CB SCT021

תצפיות ותחזיות מזג אוויר לגבי יותר מ- 4,000 שדות תעופה ברחבי העולם. דוחות METAR ו- TAF.

התחנות הזמינות מסומנות בנקודות צהובות ואדומות על גבי המפה.

העבר את העכבר לנקודה הצבעונית על מנת לראות את שם התחנה.

לאחר מכן, לחץ כדי לראות את תוכן ואת תחזיות מזג האוויר.

כדי לשנות את המפה: לחץ על הכפתורים הירוקים עם הפלוס השחור כדי להתקרב; על הכפתור הירוק עם המקף כדי להתרחק; או בחיצים הירוקים למפות סמוכות.


METAR-TAF: